createdAt,value
2023-04-15T00:01:33.134Z,7.70
2023-04-15T00:04:25.673Z,7.60
2023-04-15T00:06:53.222Z,7.60
2023-04-15T00:09:20.572Z,7.50
2023-04-15T00:11:47.718Z,7.40
2023-04-15T00:21:48.716Z,7.60
2023-04-15T00:24:15.644Z,7.60
2023-04-15T00:26:42.487Z,7.60
2023-04-15T00:29:10.195Z,7.60
2023-04-15T00:39:17.306Z,7.60
2023-04-15T01:32:27.607Z,7.50
2023-04-15T01:34:56.682Z,7.50
2023-04-15T01:42:25.898Z,7.60
2023-04-15T01:44:53.868Z,7.80
2023-04-15T01:47:21.022Z,7.80
2023-04-15T01:49:50.782Z,7.80
2023-04-15T02:06:13.250Z,7.90
2023-04-15T02:08:41.192Z,7.80
2023-04-15T02:11:51.151Z,7.80
2023-04-15T02:14:36.172Z,7.80
2023-04-15T02:22:21.674Z,7.70
2023-04-15T02:24:48.474Z,7.70
2023-04-15T02:48:22.925Z,7.70
2023-04-15T02:50:50.449Z,7.70
2023-04-15T02:53:46.344Z,7.80
2023-04-15T03:14:10.138Z,7.80
2023-04-15T03:29:53.591Z,7.70
2023-04-15T03:32:23.591Z,7.80
2023-04-15T03:34:50.699Z,7.90
2023-04-15T03:37:17.689Z,7.80
2023-04-15T03:39:44.475Z,7.90
2023-04-15T03:42:11.349Z,7.90
2023-04-15T03:44:38.386Z,7.90
2023-04-15T03:47:05.282Z,7.90
2023-04-15T04:06:56.205Z,7.90
2023-04-15T04:09:23.596Z,7.80
2023-04-15T04:12:13.877Z,7.80
2023-04-15T04:19:27.926Z,7.80
2023-04-15T04:21:54.891Z,7.80
2023-04-15T04:24:40.440Z,7.70
2023-04-15T04:27:07.570Z,7.60
2023-04-15T04:29:34.927Z,7.50
2023-04-15T04:36:27.830Z,7.50
2023-04-15T05:08:44.769Z,7.70
2023-04-15T05:12:04.210Z,7.70
2023-04-15T05:14:34.514Z,7.50
2023-04-15T05:17:08.848Z,7.60
2023-04-15T05:20:23.481Z,7.60
2023-04-15T05:23:31.808Z,7.70
2023-04-15T05:26:01.991Z,7.70
2023-04-15T05:28:29.113Z,7.70
2023-04-15T05:30:56.786Z,7.70
2023-04-15T05:33:23.847Z,7.80
2023-04-15T05:35:53.349Z,7.80
2023-04-15T05:38:20.335Z,7.80
2023-04-15T05:40:47.631Z,7.90
2023-04-15T05:43:14.381Z,7.80
2023-04-15T05:45:42.592Z,7.80
2023-04-15T05:48:09.810Z,7.80
2023-04-15T05:50:36.742Z,7.80
2023-04-15T05:53:03.769Z,7.80
2023-04-15T05:55:31.474Z,8.00
2023-04-15T05:57:58.267Z,8.00
2023-04-15T06:00:26.512Z,8.10
2023-04-15T06:02:53.764Z,8.10
2023-04-15T06:05:20.756Z,8.00
2023-04-15T06:22:53.304Z,8.20
2023-04-15T06:25:20.652Z,8.10
2023-04-15T06:27:48.378Z,8.10
2023-04-15T06:30:15.273Z,8.20
2023-04-15T06:32:42.074Z,8.20
2023-04-15T06:35:09.371Z,8.20
2023-04-15T06:37:36.459Z,8.30
2023-04-15T06:40:05.146Z,8.40
2023-04-15T06:42:33.960Z,8.50
2023-04-15T06:45:02.004Z,8.60
2023-04-15T06:47:29.245Z,8.70
2023-04-15T06:49:56.590Z,8.70
2023-04-15T06:52:24.101Z,8.80
2023-04-15T06:54:51.476Z,8.80
2023-04-15T06:57:18.873Z,8.90
2023-04-15T06:59:47.212Z,9.00
2023-04-15T07:02:14.802Z,9.20
2023-04-15T07:04:41.948Z,9.20
2023-04-15T07:07:09.504Z,9.10
2023-04-15T07:09:36.610Z,9.30
2023-04-15T07:12:03.881Z,9.40
2023-04-15T07:14:32.157Z,9.50
2023-04-15T07:16:59.179Z,9.50
2023-04-15T07:19:26.650Z,9.60
2023-04-15T07:21:53.758Z,9.60
2023-04-15T07:24:30.132Z,9.60
2023-04-15T07:27:00.822Z,9.50
2023-04-15T07:29:28.389Z,9.50
2023-04-15T07:31:57.125Z,9.50
2023-04-15T07:34:24.665Z,9.50
2023-04-15T07:36:52.049Z,9.60
2023-04-15T07:39:19.631Z,9.60
2023-04-15T07:41:47.219Z,9.60
2023-04-15T07:44:14.218Z,9.70
2023-04-15T07:46:41.782Z,9.60
2023-04-15T07:49:09.674Z,9.70
2023-04-15T07:51:37.637Z,9.70
2023-04-15T07:54:04.824Z,9.80
2023-04-15T07:56:32.617Z,9.70
2023-04-15T07:58:59.362Z,9.70
2023-04-15T08:01:26.714Z,9.80
2023-04-15T08:03:55.298Z,9.90
2023-04-15T08:06:22.971Z,10.00
2023-04-15T08:08:50.416Z,10.00
2023-04-15T08:11:17.492Z,10.10
2023-04-15T08:13:44.210Z,10.10
2023-04-15T08:16:16.250Z,10.10
2023-04-15T08:18:43.390Z,10.20
2023-04-15T08:21:11.556Z,10.30
2023-04-15T08:23:39.395Z,10.40
2023-04-15T08:26:06.625Z,10.40
2023-04-15T08:28:38.158Z,10.60
2023-04-15T08:31:05.558Z,10.70
2023-04-15T08:33:32.693Z,10.80
2023-04-15T08:35:59.818Z,11.00
2023-04-15T08:38:26.634Z,11.00
2023-04-15T08:40:54.065Z,11.20
2023-04-15T08:43:26.580Z,11.40
2023-04-15T08:45:53.559Z,11.50
2023-04-15T08:48:20.658Z,11.60
2023-04-15T08:50:47.834Z,11.90
2023-04-15T08:53:15.540Z,12.30
2023-04-15T08:55:46.431Z,12.60
2023-04-15T08:58:14.214Z,12.80
2023-04-15T09:00:42.035Z,13.00
2023-04-15T09:03:09.483Z,13.40
2023-04-15T09:05:36.757Z,13.70
2023-04-15T09:08:13.645Z,14.00
2023-04-15T09:10:40.853Z,14.20
2023-04-15T09:13:07.586Z,14.30
2023-04-15T09:15:34.662Z,14.40
2023-04-15T09:18:01.759Z,14.20
2023-04-15T09:20:29.072Z,14.00
2023-04-15T09:22:56.615Z,13.90
2023-04-15T09:25:23.409Z,14.00
2023-04-15T09:27:57.542Z,14.10
2023-04-15T09:30:25.618Z,14.20
2023-04-15T09:32:57.758Z,14.10
2023-04-15T09:35:26.226Z,14.10
2023-04-15T09:37:53.638Z,14.30
2023-04-15T09:40:36.489Z,14.30
2023-04-15T09:46:56.740Z,14.40
2023-04-15T09:53:18.294Z,15.10
2023-04-15T09:55:51.567Z,15.30
2023-04-15T09:58:29.877Z,15.50
2023-04-15T10:00:57.977Z,15.40
2023-04-15T10:08:27.119Z,15.50
2023-04-15T10:10:54.337Z,15.50
2023-04-15T10:13:25.584Z,15.60
2023-04-15T10:15:58.159Z,15.80
2023-04-15T10:18:46.167Z,16.10
2023-04-15T10:21:14.432Z,15.70
2023-04-15T10:23:41.219Z,15.90
2023-04-15T10:26:07.963Z,16.30
2023-04-15T10:28:35.241Z,16.40
2023-04-15T10:31:02.144Z,16.70
2023-04-15T10:33:28.962Z,16.60
2023-04-15T10:35:56.764Z,16.00
2023-04-15T10:38:54.634Z,16.10
2023-04-15T10:41:26.144Z,16.10
2023-04-15T10:43:57.837Z,16.30
2023-04-15T10:46:39.100Z,16.40
2023-04-15T10:49:13.207Z,16.50
2023-04-15T10:51:42.045Z,16.60
2023-04-15T10:54:16.616Z,16.80
2023-04-15T10:56:44.875Z,17.10
2023-04-15T10:59:12.449Z,17.10
2023-04-15T11:02:00.332Z,17.40
2023-04-15T11:04:56.174Z,17.10
2023-04-15T11:07:48.705Z,17.10
2023-04-15T11:10:18.756Z,17.50
2023-04-15T11:12:45.541Z,17.40
2023-04-15T11:15:38.926Z,17.50
2023-04-15T11:18:34.487Z,18.00
2023-04-15T11:21:03.659Z,17.80
2023-04-15T11:23:34.730Z,16.80
2023-04-15T11:26:03.776Z,16.90
2023-04-15T11:28:31.377Z,16.80
2023-04-15T11:30:58.796Z,16.60
2023-04-15T11:33:26.216Z,16.50
2023-04-15T11:35:55.023Z,16.20
2023-04-15T11:38:23.007Z,16.40
2023-04-15T11:40:50.395Z,16.20
2023-04-15T11:43:20.277Z,16.10
2023-04-15T11:45:51.591Z,15.90
2023-04-15T11:48:19.251Z,15.80
2023-04-15T11:50:46.046Z,15.70
2023-04-15T11:53:13.592Z,15.50
2023-04-15T11:55:45.012Z,15.50
2023-04-15T11:58:18.948Z,15.60
2023-04-15T12:00:53.215Z,15.50
2023-04-15T12:03:22.590Z,15.40
2023-04-15T12:06:12.697Z,15.40
2023-04-15T12:08:59.229Z,15.70
2023-04-15T12:11:36.966Z,16.60
2023-04-15T12:14:45.227Z,16.60
2023-04-15T12:17:14.233Z,16.20
2023-04-15T12:19:48.744Z,16.00
2023-04-15T12:22:17.868Z,15.80
2023-04-15T12:24:48.142Z,15.70
2023-04-15T12:27:16.861Z,16.30
2023-04-15T12:29:44.121Z,16.80
2023-04-15T12:32:34.322Z,17.00
2023-04-15T12:35:01.492Z,17.30
2023-04-15T12:37:29.132Z,17.90
2023-04-15T12:39:56.507Z,17.70
2023-04-15T12:42:23.316Z,17.90
2023-04-15T12:44:50.818Z,18.30
2023-04-15T12:47:18.139Z,18.90
2023-04-15T12:49:45.766Z,18.70
2023-04-15T12:52:13.568Z,18.30
2023-04-15T12:54:41.703Z,18.10
2023-04-15T12:57:09.740Z,17.70
2023-04-15T12:59:36.900Z,17.30
2023-04-15T13:02:04.339Z,16.90
2023-04-15T13:04:31.907Z,16.70
2023-04-15T13:06:59.329Z,16.50
2023-04-15T13:09:26.481Z,16.40
2023-04-15T13:11:54.550Z,16.40
2023-04-15T13:14:21.736Z,16.50
2023-04-15T13:16:48.989Z,16.50
2023-04-15T13:19:16.672Z,16.50
2023-04-15T13:21:43.436Z,16.30
2023-04-15T13:24:10.673Z,16.40
2023-04-15T13:26:38.202Z,16.20
2023-04-15T13:29:05.468Z,16.10
2023-04-15T13:31:32.581Z,16.10
2023-04-15T13:34:00.369Z,16.20
2023-04-15T13:36:27.960Z,16.20
2023-04-15T13:38:54.840Z,16.30
2023-04-15T13:41:23.509Z,16.40
2023-04-15T13:43:50.408Z,16.20
2023-04-15T13:46:17.219Z,16.10
2023-04-15T13:48:46.523Z,15.90
2023-04-15T13:51:13.847Z,15.60
2023-04-15T13:53:40.615Z,15.40
2023-04-15T13:56:10.863Z,15.40
2023-04-15T13:58:38.306Z,15.50
2023-04-15T14:01:06.809Z,15.70
2023-04-15T14:03:37.635Z,15.80
2023-04-15T14:06:06.192Z,15.90
2023-04-15T14:08:32.995Z,16.10
2023-04-15T14:10:59.854Z,16.30
2023-04-15T14:13:29.201Z,16.40
2023-04-15T14:15:57.307Z,16.40
2023-04-15T14:18:24.693Z,16.30
2023-04-15T14:20:51.891Z,16.10
2023-04-15T14:23:18.920Z,16.10
2023-04-15T14:25:47.916Z,16.00
2023-04-15T14:28:15.297Z,15.90
2023-04-15T14:30:42.172Z,15.90
2023-04-15T14:33:11.931Z,15.90
2023-04-15T14:35:39.563Z,15.80
2023-04-15T14:38:10.813Z,15.80
2023-04-15T14:40:38.876Z,15.80
2023-04-15T14:43:08.002Z,15.60
2023-04-15T14:45:36.519Z,15.60
2023-04-15T14:48:03.734Z,15.50
2023-04-15T14:50:32.403Z,15.40
2023-04-15T14:59:40.142Z,15.40
2023-04-15T15:02:07.625Z,15.20
2023-04-15T15:04:37.643Z,15.10
2023-04-15T15:07:04.610Z,15.00
2023-04-15T15:14:51.109Z,15.00
2023-04-15T15:17:20.788Z,14.80
2023-04-15T15:31:05.373Z,14.60
2023-04-15T15:33:35.079Z,14.70
2023-04-15T15:36:02.210Z,14.70
2023-04-15T15:38:29.257Z,14.70
2023-04-15T15:40:56.094Z,14.80
2023-04-15T15:43:23.706Z,14.80
2023-04-15T15:45:56.114Z,14.70
2023-04-15T15:48:23.563Z,14.60
2023-04-15T15:50:53.134Z,14.50
2023-04-15T15:53:26.100Z,14.30
2023-04-15T15:55:53.962Z,14.20
2023-04-15T15:58:20.940Z,14.10
2023-04-15T16:00:47.862Z,14.00
2023-04-15T16:03:15.814Z,14.10
2023-04-15T16:05:42.762Z,14.20
2023-04-15T16:08:09.697Z,14.20
2023-04-15T16:10:39.234Z,14.30
2023-04-15T16:13:06.037Z,14.20
2023-04-15T16:15:33.079Z,14.00
2023-04-15T16:23:23.817Z,14.20
2023-04-15T16:25:50.858Z,14.20
2023-04-15T16:28:26.257Z,14.20
2023-04-15T16:30:54.598Z,14.10
2023-04-15T16:33:22.360Z,14.10
2023-04-15T16:35:51.450Z,14.00
2023-04-15T16:38:18.931Z,13.90
2023-04-15T16:40:46.347Z,13.80
2023-04-15T16:43:13.321Z,13.70
2023-04-15T16:45:40.340Z,13.60
2023-04-15T16:48:07.381Z,13.60
2023-04-15T16:50:34.219Z,13.60
2023-04-15T16:53:03.650Z,13.60
2023-04-15T16:55:30.784Z,13.50
2023-04-15T16:58:02.743Z,13.50
2023-04-15T17:00:34.622Z,13.40
2023-04-15T17:03:02.439Z,13.40
2023-04-15T17:05:31.221Z,13.40
2023-04-15T17:07:58.972Z,13.50
2023-04-15T17:10:26.282Z,13.40
2023-04-15T17:12:55.759Z,13.40
2023-04-15T17:15:22.547Z,13.40
2023-04-15T17:17:50.531Z,13.30
2023-04-15T17:20:20.367Z,13.20
2023-04-15T17:22:48.065Z,13.10
2023-04-15T17:25:15.481Z,13.10
2023-04-15T17:27:42.248Z,13.10
2023-04-15T17:30:09.389Z,13.10
2023-04-15T17:32:37.419Z,13.10
2023-04-15T17:35:06.509Z,13.00
2023-04-15T17:37:34.405Z,13.10
2023-04-15T17:40:05.293Z,13.10
2023-04-15T17:42:33.863Z,13.00
2023-04-15T17:45:01.804Z,13.00
2023-04-15T17:47:28.561Z,13.00
2023-04-15T17:49:56.036Z,12.90
2023-04-15T17:52:23.184Z,12.90
2023-04-15T17:58:43.515Z,12.90
2023-04-15T18:01:10.400Z,12.80
2023-04-15T18:12:25.151Z,12.70
2023-04-15T21:57:55.412Z,10.70
2023-04-15T22:00:43.309Z,10.70
2023-04-15T22:03:26.835Z,10.70
2023-04-15T22:06:22.848Z,10.60
2023-04-15T22:08:59.733Z,10.60
2023-04-15T22:11:38.382Z,10.60
2023-04-15T22:14:18.357Z,10.50
2023-04-15T23:07:07.267Z,10.20
2023-04-15T23:09:39.954Z,10.10
2023-04-15T23:15:03.590Z,10.10
2023-04-15T23:17:32.946Z,10.00
2023-04-15T23:56:56.574Z,9.80
2023-04-15T23:59:28.402Z,9.80
